»·PEaware :: SWA692 KAUS-KDAL

SWA692 :: KAUS-KDAL

FLIGHT INFORMATION

Flight Status: Arrived
Operator:
Southwest Airlines
More flights by this operator :: More flights under this callsign
Pilot: Drew L. (13237)
Aircraft: BOEING 737-300
(B733)
More flights by this aircraft type
Origin: KAUS Austin Bergstrom Intl
United States
Destination: KDAL Dallas Love
United States
More flights between these airports :: More routes between these airports
Route: ILEXY1 JESSO KLJOY MAJKK REDDN4
File this flight plan on PilotEdge
Remarks: Sample flight plan
Altitude:
(Current/Filed)
33,000ft
Speed:
(Current/Filed)
115kts
Departed: 02-Jun-17 12:40 PM
Arrived: 02-Jun-17 01:27 PM
Distance/Time
Traveled:
165nm/0:46
Distance/Time
To Go:
Arrived

Flight Plot

Page will automatically refresh every two minutes.

Flight plan parsing failed; only flown route is shown


Map Options




Map Legend


Flown Route
Filed Route
Departure Airport
Arrival Airport
Navaid (VOR, NDB)
Fix

Horizontal Profiles

Position Reports

Time Latitude Longitude Heading Altitude Ground
Speed
02-Jun-17 12:41 30.295441 -97.448123 70 8882ft 291kts
02-Jun-17 12:42 30.327036 -97.353429 68 10934ft 356kts
02-Jun-17 12:43 30.362484 -97.249240 69 13853ft 376kts
02-Jun-17 12:44 30.401060 -97.134596 69 16610ft 394kts
02-Jun-17 12:45 30.441118 -97.014233 69 19148ft 412kts
02-Jun-17 12:46 30.482619 -96.888238 69 21511ft 429kts
02-Jun-17 12:47 30.525521 -96.756558 70 23672ft 445kts
02-Jun-17 12:48 30.569490 -96.620064 70 25638ft 461kts
02-Jun-17 12:49 30.613961 -96.480273 70 27912ft 464kts
02-Jun-17 12:50 30.657397 -96.342236 71 30110ft 463kts
02-Jun-17 12:51 30.700263 -96.201740 72 32195ft 460kts
02-Jun-17 12:52 30.741007 -96.059053 73 32862ft 471kts
02-Jun-17 12:53 30.776861 -95.916404 75 32844ft 477kts
02-Jun-17 12:54 30.872031 -95.827479 354 32837ft 462kts
02-Jun-17 12:55 30.995711 -95.837032 24 32836ft 472kts
02-Jun-17 12:56 31.108409 -95.766088 20 32825ft 473kts
02-Jun-17 12:57 31.218111 -95.711627 20 32844ft 472kts
02-Jun-17 12:58 31.338413 -95.651557 20 32869ft 473kts
02-Jun-17 12:59 31.458364 -95.591490 20 32873ft 470kts
02-Jun-17 13:00 31.578511 -95.584180 320 32858ft 439kts
02-Jun-17 13:01 31.682752 -95.657974 328 32785ft 445kts
02-Jun-17 13:02 31.794632 -95.724214 329 29822ft 452kts
02-Jun-17 13:03 31.905842 -95.790236 330 25404ft 461kts
02-Jun-17 13:04 32.014711 -95.859945 314 21757ft 432kts
02-Jun-17 13:05 32.096011 -95.958070 312 18274ft 411kts
02-Jun-17 13:06 32.172597 -96.049335 313 14808ft 398kts
02-Jun-17 13:07 32.247363 -96.138992 313 13220ft 365kts
02-Jun-17 13:08 32.315038 -96.220441 313 12394ft 330kts
02-Jun-17 13:09 32.377729 -96.295835 313 11464ft 321kts
02-Jun-17 13:10 32.437240 -96.367387 316 10629ft 297kts
02-Jun-17 13:11 32.500806 -96.418334 326 10187ft 264kts
02-Jun-17 13:12 32.561493 -96.465677 326 9086ft 260kts
02-Jun-17 13:13 32.617597 -96.508438 327 8071ft 257kts
02-Jun-17 13:14 32.674650 -96.551793 327 7058ft 254kts
02-Jun-17 13:15 32.733434 -96.596568 327 6014ft 251kts
02-Jun-17 13:16 32.785247 -96.650310 315 5013ft 248kts
02-Jun-17 13:17 32.833451 -96.704881 315 4068ft 244kts
02-Jun-17 13:18 32.881814 -96.760589 316 3304ft 245kts
02-Jun-17 13:19 32.927666 -96.817350 315 3354ft 238kts
02-Jun-17 13:20 32.970447 -96.871627 315 3349ft 230kts
02-Jun-17 13:21 33.013011 -96.924387 316 3150ft 225kts
02-Jun-17 13:22 33.030556 -96.979882 224 2850ft 183kts
02-Jun-17 13:23 32.987177 -97.007594 200 2840ft 188kts
02-Jun-17 13:24 32.951147 -96.977569 116 2896ft 177kts
02-Jun-17 13:25 32.927694 -96.938538 129 2530ft 132kts
02-Jun-17 13:26 32.902687 -96.909210 134 1779ft 130kts
02-Jun-17 13:27 32.877552 -96.880344 134 1086ft 127kts
02-Jun-17 13:28 32.853099 -96.851999 134 495ft 125kts
02-Jun-17 13:29 32.847520 -96.846862 202 494ft 7kts
02-Jun-17 13:30 32.846480 -96.847947 179 494ft 0kts
02-Jun-17 13:31 32.846480 -96.847946 179 494ft 0kts
02-Jun-17 13:32 32.846480 -96.847946 179 494ft 0kts

Navigation Log

Ident Type
Flight plan parsing failed, navigation log unavailable